createdAt,value
2023-02-19T00:01:33.241Z,100.00
2023-02-19T00:04:04.532Z,100.00
2023-02-19T00:06:34.050Z,100.00
2023-02-19T00:09:02.391Z,100.00
2023-02-19T00:11:32.666Z,100.00
2023-02-19T00:14:02.426Z,100.00
2023-02-19T00:16:31.452Z,100.00
2023-02-19T00:19:00.342Z,100.00
2023-02-19T00:21:29.758Z,100.00
2023-02-19T00:23:59.330Z,100.00
2023-02-19T00:26:27.736Z,100.00
2023-02-19T00:28:56.666Z,100.00
2023-02-19T00:31:26.181Z,100.00
2023-02-19T00:33:57.475Z,100.00
2023-02-19T00:36:26.202Z,100.00
2023-02-19T00:38:55.726Z,100.00
2023-02-19T00:41:24.211Z,100.00
2023-02-19T00:43:53.434Z,100.00
2023-02-19T00:46:23.708Z,100.00
2023-02-19T00:48:52.603Z,100.00
2023-02-19T00:51:21.180Z,100.00
2023-02-19T00:53:49.459Z,100.00
2023-02-19T00:56:19.055Z,100.00
2023-02-19T00:58:47.339Z,100.00
2023-02-19T01:01:15.420Z,100.00
2023-02-19T01:03:43.365Z,100.00
2023-02-19T01:06:13.131Z,100.00
2023-02-19T01:08:41.216Z,100.00
2023-02-19T01:11:10.775Z,100.00
2023-02-19T01:13:40.877Z,100.00
2023-02-19T01:16:13.251Z,100.00
2023-02-19T01:18:41.531Z,100.00
2023-02-19T01:21:11.322Z,100.00
2023-02-19T01:23:39.806Z,100.00
2023-02-19T01:26:08.113Z,100.00
2023-02-19T01:28:36.889Z,100.00
2023-02-19T01:31:07.741Z,100.00
2023-02-19T01:33:35.875Z,100.00
2023-02-19T01:36:05.292Z,100.00
2023-02-19T01:38:33.430Z,100.00
2023-02-19T01:41:03.138Z,100.00
2023-02-19T01:43:32.874Z,100.00
2023-02-19T01:46:01.044Z,100.00
2023-02-19T01:48:32.693Z,100.00
2023-02-19T01:51:04.129Z,100.00
2023-02-19T01:53:35.407Z,100.00
2023-02-19T01:56:03.718Z,100.00
2023-02-19T01:58:35.100Z,100.00
2023-02-19T02:01:06.271Z,100.00
2023-02-19T02:03:36.698Z,100.00
2023-02-19T02:06:08.567Z,100.00
2023-02-19T02:08:53.758Z,100.00
2023-02-19T02:11:22.566Z,100.00
2023-02-19T02:13:51.309Z,100.00
2023-02-19T02:16:24.611Z,100.00
2023-02-19T02:19:01.139Z,100.00
2023-02-19T02:21:47.074Z,100.00
2023-02-19T02:24:52.792Z,100.00
2023-02-19T02:27:35.083Z,100.00
2023-02-19T02:30:19.035Z,100.00
2023-02-19T02:32:53.641Z,100.00
2023-02-19T02:35:24.336Z,100.00
2023-02-19T02:37:53.203Z,100.00
2023-02-19T02:40:21.328Z,100.00
2023-02-19T02:42:49.250Z,100.00
2023-02-19T02:45:38.181Z,100.00
2023-02-19T02:48:21.094Z,100.00
2023-02-19T02:50:51.696Z,100.00
2023-02-19T02:53:40.029Z,100.00
2023-02-19T02:56:08.770Z,100.00
2023-02-19T02:58:37.340Z,100.00
2023-02-19T03:01:27.725Z,100.00
2023-02-19T03:04:00.455Z,100.00
2023-02-19T03:06:29.589Z,100.00
2023-02-19T03:09:00.239Z,100.00
2023-02-19T03:11:45.652Z,100.00
2023-02-19T03:14:40.842Z,100.00
2023-02-19T03:17:31.223Z,100.00
2023-02-19T03:20:02.523Z,100.00
2023-02-19T03:22:34.788Z,100.00
2023-02-19T03:25:24.503Z,100.00
2023-02-19T03:27:53.636Z,100.00
2023-02-19T03:30:25.552Z,100.00
2023-02-19T03:32:56.857Z,100.00
2023-02-19T03:35:27.553Z,100.00
2023-02-19T03:38:00.927Z,100.00
2023-02-19T03:40:31.040Z,100.00
2023-02-19T03:43:04.510Z,100.00
2023-02-19T03:45:39.689Z,100.00
2023-02-19T03:48:19.636Z,100.00
2023-02-19T03:50:51.836Z,100.00
2023-02-19T03:53:27.594Z,100.00
2023-02-19T03:56:04.669Z,100.00
2023-02-19T03:58:36.724Z,100.00
2023-02-19T04:01:08.559Z,100.00
2023-02-19T04:03:41.035Z,100.00
2023-02-19T04:06:12.727Z,100.00
2023-02-19T04:08:42.171Z,100.00
2023-02-19T04:11:11.185Z,100.00
2023-02-19T04:13:44.835Z,100.00
2023-02-19T04:16:15.534Z,100.00
2023-02-19T04:18:45.465Z,100.00
2023-02-19T04:21:14.543Z,100.00
2023-02-19T04:23:44.652Z,100.00
2023-02-19T04:26:13.531Z,100.00
2023-02-19T04:28:43.001Z,100.00
2023-02-19T04:31:11.631Z,100.00
2023-02-19T04:33:40.008Z,100.00
2023-02-19T04:36:12.145Z,100.00
2023-02-19T04:38:40.540Z,100.00
2023-02-19T04:41:08.929Z,100.00
2023-02-19T04:43:36.999Z,100.00
2023-02-19T04:46:05.153Z,100.00
2023-02-19T04:48:33.033Z,100.00
2023-02-19T04:51:01.062Z,100.00
2023-02-19T04:53:30.316Z,100.00
2023-02-19T04:55:58.121Z,100.00
2023-02-19T04:58:26.036Z,100.00
2023-02-19T05:00:54.146Z,100.00
2023-02-19T05:03:22.002Z,100.00
2023-02-19T05:05:49.848Z,100.00
2023-02-19T05:08:17.715Z,100.00
2023-02-19T05:10:47.051Z,100.00
2023-02-19T05:13:14.913Z,100.00
2023-02-19T05:15:42.785Z,100.00
2023-02-19T05:18:10.618Z,100.00
2023-02-19T05:20:39.051Z,100.00
2023-02-19T05:23:06.895Z,100.00
2023-02-19T05:25:34.732Z,100.00
2023-02-19T05:28:17.950Z,100.00
2023-02-19T05:30:45.969Z,100.00
2023-02-19T05:33:14.818Z,100.00
2023-02-19T05:35:44.228Z,100.00
2023-02-19T05:38:12.835Z,100.00
2023-02-19T05:40:41.156Z,100.00
2023-02-19T05:43:10.398Z,100.00
2023-02-19T05:45:38.634Z,100.00
2023-02-19T05:48:07.681Z,100.00
2023-02-19T05:50:39.705Z,100.00
2023-02-19T05:53:13.650Z,100.00
2023-02-19T05:55:41.548Z,100.00
2023-02-19T05:58:10.664Z,100.00
2023-02-19T06:00:38.523Z,100.00
2023-02-19T06:03:09.135Z,100.00
2023-02-19T06:05:38.092Z,100.00
2023-02-19T06:08:06.307Z,100.00
2023-02-19T06:10:34.161Z,100.00
2023-02-19T06:13:05.180Z,100.00
2023-02-19T06:15:34.548Z,100.00
2023-02-19T06:18:02.760Z,100.00
2023-02-19T06:20:31.053Z,100.00
2023-02-19T06:22:58.892Z,100.00
2023-02-19T06:25:26.802Z,100.00
2023-02-19T06:27:54.618Z,100.00
2023-02-19T06:30:22.485Z,100.00
2023-02-19T06:32:54.834Z,100.00
2023-02-19T06:35:22.708Z,100.00
2023-02-19T06:37:52.577Z,100.00
2023-02-19T06:40:20.744Z,100.00
2023-02-19T06:42:48.670Z,100.00
2023-02-19T06:45:16.738Z,100.00
2023-02-19T06:47:44.577Z,100.00
2023-02-19T06:50:13.740Z,100.00
2023-02-19T06:52:41.567Z,100.00
2023-02-19T06:55:10.199Z,100.00
2023-02-19T06:57:38.046Z,100.00
2023-02-19T07:00:10.046Z,100.00
2023-02-19T07:02:38.249Z,100.00
2023-02-19T07:05:06.864Z,100.00
2023-02-19T07:07:36.273Z,100.00
2023-02-19T07:10:04.688Z,100.00
2023-02-19T07:12:32.792Z,100.00
2023-02-19T07:15:00.676Z,100.00
2023-02-19T07:17:28.496Z,100.00
2023-02-19T07:19:56.322Z,100.00
2023-02-19T07:22:24.110Z,100.00
2023-02-19T07:24:53.544Z,100.00
2023-02-19T07:27:21.387Z,100.00
2023-02-19T07:29:49.300Z,100.00
2023-02-19T07:32:17.272Z,100.00
2023-02-19T07:34:45.150Z,100.00
2023-02-19T07:37:12.961Z,100.00
2023-02-19T07:39:40.796Z,100.00
2023-02-19T07:42:10.068Z,100.00
2023-02-19T07:44:38.983Z,100.00
2023-02-19T07:47:06.766Z,100.00
2023-02-19T07:49:35.333Z,100.00
2023-02-19T07:52:03.237Z,100.00
2023-02-19T07:54:31.067Z,100.00
2023-02-19T07:56:59.633Z,100.00
2023-02-19T07:59:28.890Z,100.00
2023-02-19T08:02:14.117Z,100.00
2023-02-19T08:04:42.354Z,100.00
2023-02-19T08:07:10.212Z,100.00
2023-02-19T08:09:38.137Z,100.00
2023-02-19T08:12:23.791Z,100.00
2023-02-19T08:14:53.077Z,100.00
2023-02-19T08:17:20.957Z,100.00
2023-02-19T08:19:48.782Z,100.00
2023-02-19T08:22:16.990Z,100.00
2023-02-19T08:24:45.097Z,100.00
2023-02-19T08:27:12.985Z,100.00
2023-02-19T08:29:40.781Z,100.00
2023-02-19T08:32:10.372Z,100.00
2023-02-19T08:34:38.305Z,100.00
2023-02-19T08:37:06.134Z,100.00
2023-02-19T08:39:33.954Z,100.00
2023-02-19T08:42:01.890Z,100.00
2023-02-19T08:44:29.783Z,100.00
2023-02-19T08:46:57.609Z,100.00
2023-02-19T08:49:28.807Z,100.00
2023-02-19T08:51:57.778Z,100.00
2023-02-19T08:54:25.608Z,100.00
2023-02-19T08:56:53.704Z,100.00
2023-02-19T08:59:21.949Z,100.00
2023-02-19T09:01:49.779Z,100.00
2023-02-19T09:04:18.119Z,100.00
2023-02-19T09:06:47.343Z,100.00
2023-02-19T09:09:15.200Z,100.00
2023-02-19T09:11:43.376Z,100.00
2023-02-19T09:14:11.415Z,100.00
2023-02-19T09:16:39.300Z,100.00
2023-02-19T09:19:07.146Z,100.00
2023-02-19T09:21:34.934Z,100.00
2023-02-19T09:24:04.389Z,100.00
2023-02-19T09:26:32.211Z,100.00
2023-02-19T09:29:00.012Z,100.00
2023-02-19T09:31:27.980Z,100.00
2023-02-19T09:33:55.813Z,100.00
2023-02-19T09:36:23.639Z,100.00
2023-02-19T09:38:51.426Z,100.00
2023-02-19T09:41:27.520Z,100.00
2023-02-19T09:43:55.688Z,100.00
2023-02-19T09:46:28.125Z,100.00
2023-02-19T09:48:59.700Z,100.00
2023-02-19T09:51:28.926Z,100.00
2023-02-19T09:53:57.212Z,100.00
2023-02-19T09:56:27.747Z,100.00
2023-02-19T09:58:58.146Z,100.00
2023-02-19T10:01:28.370Z,100.00
2023-02-19T10:03:56.312Z,100.00
2023-02-19T10:06:26.004Z,100.00
2023-02-19T10:08:56.567Z,100.00
2023-02-19T10:11:27.642Z,100.00
2023-02-19T10:14:02.639Z,100.00
2023-02-19T10:16:30.851Z,100.00
2023-02-19T10:18:58.668Z,100.00
2023-02-19T10:21:28.166Z,100.00
2023-02-19T10:23:57.709Z,100.00
2023-02-19T10:26:27.614Z,100.00
2023-02-19T10:28:55.953Z,100.00
2023-02-19T10:31:26.174Z,100.00
2023-02-19T10:33:56.121Z,100.00
2023-02-19T10:36:31.982Z,100.00
2023-02-19T10:39:00.822Z,100.00
2023-02-19T10:41:30.399Z,100.00
2023-02-19T10:44:03.453Z,100.00
2023-02-19T10:46:33.946Z,100.00
2023-02-19T10:49:03.818Z,100.00
2023-02-19T10:51:33.470Z,100.00
2023-02-19T10:54:06.871Z,100.00
2023-02-19T10:56:38.602Z,100.00
2023-02-19T10:59:23.438Z,100.00
2023-02-19T11:01:55.430Z,100.00
2023-02-19T11:04:23.360Z,100.00
2023-02-19T11:06:51.345Z,100.00
2023-02-19T11:09:26.847Z,100.00
2023-02-19T11:11:57.339Z,100.00
2023-02-19T11:14:26.627Z,100.00
2023-02-19T11:16:56.454Z,100.00
2023-02-19T11:19:27.857Z,100.00
2023-02-19T11:21:55.993Z,100.00
2023-02-19T11:24:27.747Z,100.00
2023-02-19T11:26:57.351Z,100.00
2023-02-19T11:29:28.675Z,100.00
2023-02-19T11:31:57.257Z,100.00
2023-02-19T11:34:30.461Z,100.00
2023-02-19T11:37:15.336Z,100.00
2023-02-19T11:39:44.854Z,100.00
2023-02-19T11:42:37.275Z,100.00
2023-02-19T11:45:15.878Z,100.00
2023-02-19T11:48:06.130Z,100.00
2023-02-19T11:50:45.126Z,100.00
2023-02-19T11:53:18.225Z,100.00
2023-02-19T11:55:53.027Z,100.00
2023-02-19T11:58:51.667Z,100.00
2023-02-19T12:01:24.410Z,100.00
2023-02-19T12:04:07.138Z,100.00
2023-02-19T12:06:39.885Z,100.00
2023-02-19T12:09:20.104Z,100.00
2023-02-19T12:11:59.607Z,100.00
2023-02-19T12:15:00.415Z,100.00
2023-02-19T12:17:40.947Z,100.00
2023-02-19T12:20:17.209Z,100.00
2023-02-19T12:22:49.362Z,100.00
2023-02-19T12:25:28.083Z,100.00
2023-02-19T12:28:16.522Z,100.00
2023-02-19T12:31:03.533Z,100.00
2023-02-19T12:33:50.328Z,100.00
2023-02-19T12:36:26.215Z,100.00
2023-02-19T12:39:01.054Z,100.00
2023-02-19T12:41:36.029Z,100.00
2023-02-19T12:44:07.121Z,100.00
2023-02-19T12:46:37.923Z,100.00
2023-02-19T12:49:10.927Z,100.00
2023-02-19T12:51:40.499Z,100.00
2023-02-19T12:54:14.735Z,100.00
2023-02-19T12:56:45.572Z,95.90
2023-02-19T12:59:16.866Z,96.24
2023-02-19T13:01:53.878Z,88.98
2023-02-19T13:04:29.080Z,86.56
2023-02-19T13:07:00.411Z,82.82
2023-02-19T13:09:33.016Z,81.91
2023-02-19T13:12:04.662Z,83.25
2023-02-19T13:14:35.488Z,83.02
2023-02-19T13:17:09.398Z,81.87
2023-02-19T13:19:38.203Z,74.77
2023-02-19T13:22:33.278Z,75.19
2023-02-19T13:25:01.608Z,76.35
2023-02-19T13:27:53.265Z,84.61
2023-02-19T13:30:30.379Z,83.52
2023-02-19T13:33:06.484Z,85.66
2023-02-19T13:35:56.302Z,87.53
2023-02-19T13:38:24.628Z,88.86
2023-02-19T13:40:57.163Z,91.63
2023-02-19T13:43:26.920Z,89.06
2023-02-19T13:45:56.950Z,93.50
2023-02-19T13:48:31.907Z,93.52
2023-02-19T13:51:39.775Z,94.74
2023-02-19T13:54:26.017Z,94.74
2023-02-19T13:57:22.268Z,94.59
2023-02-19T13:59:50.784Z,94.79
2023-02-19T14:02:34.030Z,93.15
2023-02-19T14:05:07.286Z,93.19
2023-02-19T14:07:50.283Z,89.38
2023-02-19T14:10:58.762Z,90.53
2023-02-19T14:14:01.608Z,91.03
2023-02-19T14:16:54.937Z,89.86
2023-02-19T14:19:41.586Z,87.72
2023-02-19T14:22:42.804Z,85.03
2023-02-19T14:25:30.964Z,82.46
2023-02-19T14:28:02.925Z,82.35
2023-02-19T14:30:31.635Z,79.52
2023-02-19T14:33:10.233Z,79.23
2023-02-19T14:35:41.493Z,79.67
2023-02-19T14:38:16.290Z,80.71
2023-02-19T14:40:47.284Z,81.19
2023-02-19T14:43:16.672Z,85.50
2023-02-19T14:45:46.554Z,93.26
2023-02-19T14:48:20.038Z,95.75
2023-02-19T14:50:50.053Z,96.36
2023-02-19T14:53:18.502Z,91.97
2023-02-19T14:55:48.143Z,92.30
2023-02-19T14:58:19.704Z,92.71
2023-02-19T15:00:47.601Z,90.00
2023-02-19T15:03:34.746Z,85.84
2023-02-19T15:06:06.415Z,82.70
2023-02-19T15:08:39.575Z,80.04
2023-02-19T15:11:13.779Z,81.07
2023-02-19T15:13:45.757Z,79.07
2023-02-19T15:16:18.684Z,76.56
2023-02-19T15:18:46.497Z,74.91
2023-02-19T15:21:23.846Z,73.26
2023-02-19T15:23:52.519Z,73.64
2023-02-19T15:26:23.057Z,71.94
2023-02-19T15:28:59.554Z,71.44
2023-02-19T15:31:27.547Z,73.41
2023-02-19T15:33:55.471Z,78.58
2023-02-19T15:36:27.119Z,84.02
2023-02-19T15:38:57.212Z,87.63
2023-02-19T15:41:29.580Z,86.31
2023-02-19T15:44:09.822Z,84.50
2023-02-19T15:46:38.271Z,81.13
2023-02-19T15:49:09.259Z,84.06
2023-02-19T15:51:40.534Z,86.24
2023-02-19T15:54:15.813Z,89.18
2023-02-19T15:56:46.806Z,91.34
2023-02-19T15:59:21.354Z,93.42
2023-02-19T16:01:49.514Z,95.57
2023-02-19T16:04:19.233Z,97.58
2023-02-19T16:06:56.323Z,100.00
2023-02-19T16:09:28.700Z,100.00
2023-02-19T16:11:59.251Z,100.00
2023-02-19T16:14:31.749Z,100.00
2023-02-19T16:17:02.560Z,100.00
2023-02-19T16:19:32.505Z,100.00
2023-02-19T16:22:00.689Z,100.00
2023-02-19T16:24:32.232Z,100.00
2023-02-19T16:27:01.622Z,100.00
2023-02-19T16:29:31.354Z,100.00
2023-02-19T16:32:01.062Z,100.00
2023-02-19T16:34:34.336Z,100.00
2023-02-19T16:37:03.934Z,100.00
2023-02-19T16:39:32.607Z,100.00
2023-02-19T16:42:19.704Z,100.00
2023-02-19T16:44:48.496Z,100.00
2023-02-19T16:47:28.717Z,100.00
2023-02-19T16:49:58.532Z,100.00
2023-02-19T16:52:26.414Z,100.00
2023-02-19T16:54:54.294Z,100.00
2023-02-19T16:57:23.763Z,100.00
2023-02-19T16:59:51.566Z,100.00
2023-02-19T17:02:22.739Z,100.00
2023-02-19T17:04:51.907Z,100.00
2023-02-19T17:07:19.896Z,100.00
2023-02-19T17:09:48.195Z,100.00
2023-02-19T17:12:17.948Z,100.00
2023-02-19T17:14:47.210Z,100.00
2023-02-19T17:17:15.002Z,100.00
2023-02-19T17:19:42.875Z,100.00
2023-02-19T17:22:13.881Z,100.00
2023-02-19T17:24:43.028Z,100.00
2023-02-19T17:27:11.932Z,100.00
2023-02-19T17:29:39.763Z,100.00
2023-02-19T17:32:09.133Z,100.00
2023-02-19T17:34:37.038Z,100.00
2023-02-19T17:37:04.892Z,100.00
2023-02-19T17:39:32.702Z,100.00
2023-02-19T17:42:00.540Z,100.00
2023-02-19T17:44:28.360Z,100.00
2023-02-19T17:46:56.168Z,100.00
2023-02-19T17:49:25.398Z,100.00
2023-02-19T17:51:53.440Z,100.00
2023-02-19T17:54:21.226Z,100.00
2023-02-19T17:56:49.085Z,100.00
2023-02-19T17:59:18.281Z,100.00
2023-02-19T18:01:47.114Z,100.00
2023-02-19T18:04:15.117Z,100.00
2023-02-19T18:06:44.614Z,100.00
2023-02-19T18:09:15.232Z,100.00
2023-02-19T18:11:45.669Z,100.00
2023-02-19T18:14:13.624Z,100.00
2023-02-19T18:16:48.732Z,100.00
2023-02-19T18:19:17.663Z,100.00
2023-02-19T18:21:47.037Z,100.00
2023-02-19T18:24:14.878Z,100.00
2023-02-19T18:26:42.740Z,100.00
2023-02-19T18:29:10.760Z,100.00
2023-02-19T18:31:38.717Z,100.00
2023-02-19T18:34:07.572Z,100.00
2023-02-19T18:36:35.473Z,100.00
2023-02-19T18:39:04.758Z,100.00
2023-02-19T18:41:32.563Z,100.00
2023-02-19T18:44:00.832Z,100.00
2023-02-19T18:46:30.958Z,100.00
2023-02-19T18:49:00.224Z,100.00
2023-02-19T18:51:28.183Z,100.00
2023-02-19T18:53:56.053Z,100.00
2023-02-19T18:56:25.564Z,100.00
2023-02-19T18:58:53.375Z,100.00
2023-02-19T19:01:23.747Z,100.00
2023-02-19T19:03:52.923Z,100.00
2023-02-19T19:06:21.132Z,100.00
2023-02-19T19:08:48.988Z,100.00
2023-02-19T19:11:17.100Z,100.00
2023-02-19T19:13:47.989Z,100.00
2023-02-19T19:16:15.858Z,100.00
2023-02-19T19:18:43.772Z,100.00
2023-02-19T19:21:12.020Z,100.00
2023-02-19T19:23:39.982Z,100.00
2023-02-19T19:26:07.969Z,100.00
2023-02-19T19:28:35.908Z,100.00
2023-02-19T19:31:05.691Z,100.00
2023-02-19T19:33:33.584Z,100.00
2023-02-19T19:36:01.430Z,100.00
2023-02-19T19:38:29.766Z,100.00
2023-02-19T19:40:57.855Z,100.00
2023-02-19T19:43:27.304Z,100.00
2023-02-19T19:45:55.278Z,100.00
2023-02-19T19:48:26.222Z,100.00
2023-02-19T19:50:54.597Z,100.00
2023-02-19T19:53:22.387Z,100.00
2023-02-19T19:55:50.304Z,100.00
2023-02-19T19:58:20.969Z,100.00
2023-02-19T20:00:48.810Z,100.00
2023-02-19T20:03:16.604Z,100.00
2023-02-19T20:05:46.856Z,100.00
2023-02-19T20:08:15.315Z,100.00
2023-02-19T20:10:44.561Z,100.00
2023-02-19T20:13:17.007Z,100.00
2023-02-19T20:15:45.166Z,100.00
2023-02-19T20:18:13.154Z,100.00
2023-02-19T20:20:40.979Z,100.00
2023-02-19T20:23:10.509Z,100.00
2023-02-19T20:25:38.372Z,100.00
2023-02-19T20:28:06.561Z,100.00
2023-02-19T20:30:34.818Z,100.00
2023-02-19T20:33:02.631Z,100.00
2023-02-19T20:35:30.631Z,100.00
2023-02-19T20:37:58.547Z,100.00
2023-02-19T20:40:30.549Z,100.00
2023-02-19T20:43:00.824Z,100.00
2023-02-19T20:45:28.838Z,100.00
2023-02-19T20:47:56.666Z,100.00
2023-02-19T20:50:25.753Z,100.00
2023-02-19T20:52:55.749Z,100.00
2023-02-19T20:55:23.757Z,100.00
2023-02-19T20:57:52.935Z,100.00
2023-02-19T21:00:21.908Z,100.00
2023-02-19T21:02:49.807Z,100.00
2023-02-19T21:05:17.845Z,100.00
2023-02-19T21:07:45.720Z,100.00
2023-02-19T21:10:14.277Z,100.00
2023-02-19T21:12:42.986Z,100.00
2023-02-19T21:15:12.328Z,100.00
2023-02-19T21:17:40.183Z,100.00
2023-02-19T21:20:09.467Z,100.00
2023-02-19T21:22:37.299Z,100.00
2023-02-19T21:25:05.540Z,100.00
2023-02-19T21:27:33.686Z,100.00
2023-02-19T21:30:01.606Z,100.00
2023-02-19T21:32:30.868Z,100.00
2023-02-19T21:34:58.733Z,100.00
2023-02-19T21:37:26.596Z,100.00
2023-02-19T21:39:54.840Z,100.00
2023-02-19T21:42:22.687Z,100.00
2023-02-19T21:44:50.560Z,100.00
2023-02-19T21:47:18.706Z,100.00
2023-02-19T21:49:47.918Z,100.00
2023-02-19T21:52:15.753Z,100.00
2023-02-19T21:54:43.584Z,100.00
2023-02-19T21:57:11.376Z,100.00
2023-02-19T21:59:39.167Z,100.00
2023-02-19T22:02:07.448Z,100.00
2023-02-19T22:04:35.324Z,100.00
2023-02-19T22:07:04.539Z,100.00
2023-02-19T22:09:32.387Z,100.00
2023-02-19T22:12:00.254Z,100.00
2023-02-19T22:14:28.131Z,100.00
2023-02-19T22:16:55.929Z,100.00
2023-02-19T22:19:23.759Z,100.00
2023-02-19T22:21:51.591Z,100.00
2023-02-19T22:24:22.327Z,100.00
2023-02-19T22:26:51.388Z,100.00
2023-02-19T22:29:19.180Z,100.00
2023-02-19T22:31:47.124Z,100.00
2023-02-19T22:34:15.587Z,100.00
2023-02-19T22:36:43.675Z,100.00
2023-02-19T22:39:17.675Z,100.00
2023-02-19T22:41:47.260Z,100.00
2023-02-19T22:44:15.440Z,100.00
2023-02-19T22:46:48.485Z,100.00
2023-02-19T22:49:16.403Z,100.00
2023-02-19T22:51:49.666Z,100.00
2023-02-19T22:54:17.686Z,100.00
2023-02-19T22:56:46.860Z,100.00
2023-02-19T22:59:14.639Z,100.00
2023-02-19T23:01:42.471Z,100.00
2023-02-19T23:04:10.698Z,100.00
2023-02-19T23:06:41.411Z,100.00
2023-02-19T23:09:11.469Z,100.00
2023-02-19T23:11:39.958Z,100.00
2023-02-19T23:14:09.297Z,100.00
2023-02-19T23:16:37.211Z,100.00
2023-02-19T23:19:05.974Z,100.00
2023-02-19T23:21:34.357Z,100.00
2023-02-19T23:24:02.213Z,100.00
2023-02-19T23:26:30.075Z,100.00
2023-02-19T23:28:58.037Z,100.00
2023-02-19T23:31:27.529Z,100.00
2023-02-19T23:33:56.115Z,100.00
2023-02-19T23:36:24.129Z,100.00
2023-02-19T23:38:51.925Z,100.00
2023-02-19T23:41:19.802Z,100.00
2023-02-19T23:43:47.960Z,100.00
2023-02-19T23:46:17.532Z,100.00
2023-02-19T23:48:47.068Z,100.00
2023-02-19T23:51:15.160Z,100.00
2023-02-19T23:53:43.040Z,100.00
2023-02-19T23:56:11.148Z,100.00
2023-02-19T23:58:39.342Z,100.00
